sensor_id;sensor_type;location;lat;lon;timestamp;temperature;humidity
59881;DHT22;45751;51.380;10.326;2022-08-21T00:00:21;17.10;99.90
59881;DHT22;45751;51.380;10.326;2022-08-21T00:02:54;17.00;99.90
59881;DHT22;45751;51.380;10.326;2022-08-21T00:05:23;17.00;99.90
59881;DHT22;45751;51.380;10.326;2022-08-21T00:07:50;16.90;99.90
59881;DHT22;45751;51.380;10.326;2022-08-21T00:10:18;16.90;99.90
59881;DHT22;45751;51.380;10.326;2022-08-21T00:12:47;16.90;99.90
59881;DHT22;45751;51.380;10.326;2022-08-21T00:15:17;17.00;99.90
59881;DHT22;45751;51.380;10.326;2022-08-21T00:17:46;16.90;99.90
59881;DHT22;45751;51.380;10.326;2022-08-21T00:20:15;16.80;99.90
59881;DHT22;45751;51.380;10.326;2022-08-21T00:22:43;16.80;99.90
59881;DHT22;45751;51.380;10.326;2022-08-21T00:25:10;16.80;99.90
59881;DHT22;45751;51.380;10.326;2022-08-21T00:27:37;16.70;99.90
59881;DHT22;45751;51.380;10.326;2022-08-21T00:30:06;16.70;99.90
59881;DHT22;45751;51.380;10.326;2022-08-21T00:32:33;16.70;99.90
59881;DHT22;45751;51.380;10.326;2022-08-21T00:35:00;16.70;99.90
59881;DHT22;45751;51.380;10.326;2022-08-21T00:37:27;16.60;99.90
59881;DHT22;45751;51.380;10.326;2022-08-21T00:39:56;16.60;99.90
59881;DHT22;45751;51.380;10.326;2022-08-21T00:42:23;16.60;99.90
59881;DHT22;45751;51.380;10.326;2022-08-21T00:44:50;16.60;99.90
59881;DHT22;45751;51.380;10.326;2022-08-21T00:47:18;16.60;99.90
59881;DHT22;45751;51.380;10.326;2022-08-21T00:49:46;16.60;99.90
59881;DHT22;45751;51.380;10.326;2022-08-21T00:52:17;16.50;99.90
59881;DHT22;45751;51.380;10.326;2022-08-21T00:54:47;16.50;99.90
59881;DHT22;45751;51.380;10.326;2022-08-21T00:57:30;16.50;99.90
59881;DHT22;45751;51.380;10.326;2022-08-21T01:00:00;16.50;99.90
59881;DHT22;45751;51.380;10.326;2022-08-21T01:02:27;16.40;99.90
59881;DHT22;45751;51.380;10.326;2022-08-21T01:04:57;16.40;99.90
59881;DHT22;45751;51.380;10.326;2022-08-21T01:07:25;16.40;99.90
59881;DHT22;45751;51.380;10.326;2022-08-21T01:10:13;16.40;99.90
59881;DHT22;45751;51.380;10.326;2022-08-21T01:12:52;16.40;99.90
59881;DHT22;45751;51.380;10.326;2022-08-21T01:15:22;16.40;99.90
59881;DHT22;45751;51.380;10.326;2022-08-21T01:17:50;16.40;99.90
59881;DHT22;45751;51.380;10.326;2022-08-21T01:20:17;16.40;99.90
59881;DHT22;45751;51.380;10.326;2022-08-21T01:22:44;16.40;99.90
59881;DHT22;45751;51.380;10.326;2022-08-21T01:25:14;16.50;99.90
59881;DHT22;45751;51.380;10.326;2022-08-21T01:27:42;16.40;99.90
59881;DHT22;45751;51.380;10.326;2022-08-21T01:30:16;16.40;99.90
59881;DHT22;45751;51.380;10.326;2022-08-21T01:32:43;16.30;99.90
59881;DHT22;45751;51.380;10.326;2022-08-21T01:35:11;16.40;99.90
59881;DHT22;45751;51.380;10.326;2022-08-21T01:37:39;16.30;99.90
59881;DHT22;45751;51.380;10.326;2022-08-21T01:40:07;16.20;99.90
59881;DHT22;45751;51.380;10.326;2022-08-21T01:42:35;16.20;99.90
59881;DHT22;45751;51.380;10.326;2022-08-21T01:45:03;16.20;99.90
59881;DHT22;45751;51.380;10.326;2022-08-21T01:47:30;16.10;99.90
59881;DHT22;45751;51.380;10.326;2022-08-21T01:49:58;16.10;99.90
59881;DHT22;45751;51.380;10.326;2022-08-21T01:52:25;16.00;99.90
59881;DHT22;45751;51.380;10.326;2022-08-21T01:54:52;15.90;99.90
59881;DHT22;45751;51.380;10.326;2022-08-21T01:57:21;15.90;99.90
59881;DHT22;45751;51.380;10.326;2022-08-21T01:59:52;15.90;99.90
59881;DHT22;45751;51.380;10.326;2022-08-21T02:02:19;15.80;99.90
59881;DHT22;45751;51.380;10.326;2022-08-21T02:04:46;15.80;99.90
59881;DHT22;45751;51.380;10.326;2022-08-21T02:07:13;15.70;99.90
59881;DHT22;45751;51.380;10.326;2022-08-21T02:09:40;15.70;99.90
59881;DHT22;45751;51.380;10.326;2022-08-21T02:12:10;15.70;99.90
59881;DHT22;45751;51.380;10.326;2022-08-21T02:14:37;15.60;99.90
59881;DHT22;45751;51.380;10.326;2022-08-21T02:17:04;15.60;99.90
59881;DHT22;45751;51.380;10.326;2022-08-21T02:19:36;15.50;99.90
59881;DHT22;45751;51.380;10.326;2022-08-21T02:22:09;15.50;99.90
59881;DHT22;45751;51.380;10.326;2022-08-21T02:24:37;15.50;99.90
59881;DHT22;45751;51.380;10.326;2022-08-21T02:27:22;15.40;99.90
59881;DHT22;45751;51.380;10.326;2022-08-21T02:29:56;15.40;99.90
59881;DHT22;45751;51.380;10.326;2022-08-21T02:32:24;15.40;99.90
59881;DHT22;45751;51.380;10.326;2022-08-21T02:34:51;15.40;99.90
59881;DHT22;45751;51.380;10.326;2022-08-21T02:37:18;15.40;99.90
59881;DHT22;45751;51.380;10.326;2022-08-21T02:39:45;15.40;99.90
59881;DHT22;45751;51.380;10.326;2022-08-21T02:42:12;15.40;99.90
59881;DHT22;45751;51.380;10.326;2022-08-21T02:44:39;15.30;99.90
59881;DHT22;45751;51.380;10.326;2022-08-21T02:47:06;15.30;99.90
59881;DHT22;45751;51.380;10.326;2022-08-21T02:49:33;15.30;99.90
59881;DHT22;45751;51.380;10.326;2022-08-21T02:52:00;15.20;99.90
59881;DHT22;45751;51.380;10.326;2022-08-21T02:54:27;15.30;99.90
59881;DHT22;45751;51.380;10.326;2022-08-21T02:56:54;15.20;99.90
59881;DHT22;45751;51.380;10.326;2022-08-21T02:59:20;15.20;99.90
59881;DHT22;45751;51.380;10.326;2022-08-21T03:01:47;15.20;99.90
59881;DHT22;45751;51.380;10.326;2022-08-21T03:04:14;15.20;99.90
59881;DHT22;45751;51.380;10.326;2022-08-21T03:06:41;15.20;99.90
59881;DHT22;45751;51.380;10.326;2022-08-21T03:09:08;15.20;99.90
59881;DHT22;45751;51.380;10.326;2022-08-21T03:11:35;15.20;99.90
59881;DHT22;45751;51.380;10.326;2022-08-21T03:14:02;15.20;99.90
59881;DHT22;45751;51.380;10.326;2022-08-21T03:16:29;15.20;99.90
59881;DHT22;45751;51.380;10.326;2022-08-21T03:19:00;15.20;99.90
59881;DHT22;45751;51.380;10.326;2022-08-21T03:21:27;15.20;99.90
59881;DHT22;45751;51.380;10.326;2022-08-21T03:23:55;15.20;99.90
59881;DHT22;45751;51.380;10.326;2022-08-21T03:26:22;15.20;99.90
59881;DHT22;45751;51.380;10.326;2022-08-21T03:28:49;15.10;99.90
59881;DHT22;45751;51.380;10.326;2022-08-21T03:31:17;15.20;99.90
59881;DHT22;45751;51.380;10.326;2022-08-21T03:33:44;15.20;99.90
59881;DHT22;45751;51.380;10.326;2022-08-21T03:36:11;15.20;99.90
59881;DHT22;45751;51.380;10.326;2022-08-21T03:38:38;15.10;99.90
59881;DHT22;45751;51.380;10.326;2022-08-21T03:41:06;15.20;99.90
59881;DHT22;45751;51.380;10.326;2022-08-21T03:43:35;15.20;99.90
59881;DHT22;45751;51.380;10.326;2022-08-21T03:46:03;15.20;99.90
59881;DHT22;45751;51.380;10.326;2022-08-21T03:48:30;15.20;99.90
59881;DHT22;45751;51.380;10.326;2022-08-21T03:50:57;15.20;99.90
59881;DHT22;45751;51.380;10.326;2022-08-21T03:53:24;15.20;99.90
59881;DHT22;45751;51.380;10.326;2022-08-21T03:55:52;15.20;99.90
59881;DHT22;45751;51.380;10.326;2022-08-21T03:58:22;15.20;99.90
59881;DHT22;45751;51.380;10.326;2022-08-21T04:00:53;15.20;99.90
59881;DHT22;45751;51.380;10.326;2022-08-21T04:03:21;15.20;99.90
59881;DHT22;45751;51.380;10.326;2022-08-21T04:05:48;15.20;99.90
59881;DHT22;45751;51.380;10.326;2022-08-21T04:08:16;15.20;99.90
59881;DHT22;45751;51.380;10.326;2022-08-21T04:10:48;15.20;99.90
59881;DHT22;45751;51.380;10.326;2022-08-21T04:13:16;15.20;99.90
59881;DHT22;45751;51.380;10.326;2022-08-21T04:15:43;15.20;99.90
59881;DHT22;45751;51.380;10.326;2022-08-21T04:18:10;15.20;99.90
59881;DHT22;45751;51.380;10.326;2022-08-21T04:20:37;15.20;99.90
59881;DHT22;45751;51.380;10.326;2022-08-21T04:23:05;15.20;99.90
59881;DHT22;45751;51.380;10.326;2022-08-21T04:25:32;15.20;99.90
59881;DHT22;45751;51.380;10.326;2022-08-21T04:27:59;15.20;99.90
59881;DHT22;45751;51.380;10.326;2022-08-21T04:30:26;15.20;99.90
59881;DHT22;45751;51.380;10.326;2022-08-21T04:32:56;15.20;99.90
59881;DHT22;45751;51.380;10.326;2022-08-21T04:35:26;15.30;99.90
59881;DHT22;45751;51.380;10.326;2022-08-21T04:37:53;15.20;99.90
59881;DHT22;45751;51.380;10.326;2022-08-21T04:40:21;15.20;99.90
59881;DHT22;45751;51.380;10.326;2022-08-21T04:42:50;15.20;99.90
59881;DHT22;45751;51.380;10.326;2022-08-21T04:47:52;15.20;99.90
59881;DHT22;45751;51.380;10.326;2022-08-21T04:50:25;15.20;99.90
59881;DHT22;45751;51.380;10.326;2022-08-21T04:53:04;15.20;99.90
59881;DHT22;45751;51.380;10.326;2022-08-21T04:55:31;15.20;99.90
59881;DHT22;45751;51.380;10.326;2022-08-21T04:57:59;15.20;99.90
59881;DHT22;45751;51.380;10.326;2022-08-21T05:00:26;15.20;99.90
59881;DHT22;45751;51.380;10.326;2022-08-21T05:02:54;15.20;99.90
59881;DHT22;45751;51.380;10.326;2022-08-21T05:05:24;15.20;99.90
59881;DHT22;45751;51.380;10.326;2022-08-21T05:07:51;15.20;99.90
59881;DHT22;45751;51.380;10.326;2022-08-21T05:10:20;15.30;99.90
59881;DHT22;45751;51.380;10.326;2022-08-21T05:12:47;15.30;99.90
59881;DHT22;45751;51.380;10.326;2022-08-21T05:15:14;15.30;99.90
59881;DHT22;45751;51.380;10.326;2022-08-21T05:17:41;15.30;99.90
59881;DHT22;45751;51.380;10.326;2022-08-21T05:20:10;15.30;99.90
59881;DHT22;45751;51.380;10.326;2022-08-21T05:22:37;15.30;99.90
59881;DHT22;45751;51.380;10.326;2022-08-21T05:25:05;15.30;99.90
59881;DHT22;45751;51.380;10.326;2022-08-21T05:27:37;15.30;99.90
59881;DHT22;45751;51.380;10.326;2022-08-21T05:30:08;15.20;99.90
59881;DHT22;45751;51.380;10.326;2022-08-21T05:32:36;15.30;99.90
59881;DHT22;45751;51.380;10.326;2022-08-21T05:35:06;15.30;99.90
59881;DHT22;45751;51.380;10.326;2022-08-21T05:37:34;15.30;99.90
59881;DHT22;45751;51.380;10.326;2022-08-21T05:40:03;15.30;99.90
59881;DHT22;45751;51.380;10.326;2022-08-21T05:42:52;15.30;99.90
59881;DHT22;45751;51.380;10.326;2022-08-21T05:45:26;15.40;99.90
59881;DHT22;45751;51.380;10.326;2022-08-21T05:48:20;15.40;99.90
59881;DHT22;45751;51.380;10.326;2022-08-21T05:50:48;15.50;99.90
59881;DHT22;45751;51.380;10.326;2022-08-21T05:53:17;15.50;99.90
59881;DHT22;45751;51.380;10.326;2022-08-21T05:55:45;15.50;99.90
59881;DHT22;45751;51.380;10.326;2022-08-21T05:58:14;15.50;99.90
59881;DHT22;45751;51.380;10.326;2022-08-21T06:00:42;15.50;99.90
59881;DHT22;45751;51.380;10.326;2022-08-21T06:03:27;15.50;99.90
59881;DHT22;45751;51.380;10.326;2022-08-21T06:05:55;15.50;99.90
59881;DHT22;45751;51.380;10.326;2022-08-21T06:08:22;15.60;99.90
59881;DHT22;45751;51.380;10.326;2022-08-21T06:10:51;15.60;99.90
59881;DHT22;45751;51.380;10.326;2022-08-21T06:13:19;15.60;99.90
59881;DHT22;45751;51.380;10.326;2022-08-21T06:15:46;15.60;99.90
59881;DHT22;45751;51.380;10.326;2022-08-21T06:18:14;15.70;99.90
59881;DHT22;45751;51.380;10.326;2022-08-21T06:20:41;15.70;99.90
59881;DHT22;45751;51.380;10.326;2022-08-21T06:23:08;15.70;99.90
59881;DHT22;45751;51.380;10.326;2022-08-21T06:25:35;15.70;99.90
59881;DHT22;45751;51.380;10.326;2022-08-21T06:28:08;15.80;99.90
59881;DHT22;45751;51.380;10.326;2022-08-21T06:30:36;15.80;99.90
59881;DHT22;45751;51.380;10.326;2022-08-21T06:33:04;15.80;99.90
59881;DHT22;45751;51.380;10.326;2022-08-21T06:35:31;15.80;99.90
59881;DHT22;45751;51.380;10.326;2022-08-21T06:37:58;15.70;99.90
59881;DHT22;45751;51.380;10.326;2022-08-21T06:40:26;15.80;99.90
59881;DHT22;45751;51.380;10.326;2022-08-21T06:43:04;15.70;99.90
59881;DHT22;45751;51.380;10.326;2022-08-21T06:45:32;15.80;99.90
59881;DHT22;45751;51.380;10.326;2022-08-21T06:47:59;15.80;99.90
59881;DHT22;45751;51.380;10.326;2022-08-21T06:50:26;15.90;99.90
59881;DHT22;45751;51.380;10.326;2022-08-21T06:53:08;15.90;99.90
59881;DHT22;45751;51.380;10.326;2022-08-21T06:55:37;15.90;99.90
59881;DHT22;45751;51.380;10.326;2022-08-21T06:58:04;15.90;99.90
59881;DHT22;45751;51.380;10.326;2022-08-21T07:00:32;15.90;99.90
59881;DHT22;45751;51.380;10.326;2022-08-21T07:02:59;16.00;99.90
59881;DHT22;45751;51.380;10.326;2022-08-21T07:05:28;16.00;99.90
59881;DHT22;45751;51.380;10.326;2022-08-21T07:07:55;16.00;99.90
59881;DHT22;45751;51.380;10.326;2022-08-21T07:10:25;16.10;99.90
59881;DHT22;45751;51.380;10.326;2022-08-21T07:12:53;16.10;99.90
59881;DHT22;45751;51.380;10.326;2022-08-21T07:15:28;16.20;99.90
59881;DHT22;45751;51.380;10.326;2022-08-21T07:17:57;16.20;99.90
59881;DHT22;45751;51.380;10.326;2022-08-21T07:20:24;16.20;99.90
59881;DHT22;45751;51.380;10.326;2022-08-21T07:22:51;16.20;99.90
59881;DHT22;45751;51.380;10.326;2022-08-21T07:25:18;16.30;99.90
59881;DHT22;45751;51.380;10.326;2022-08-21T07:27:45;16.30;99.90
59881;DHT22;45751;51.380;10.326;2022-08-21T07:30:12;16.30;99.90
59881;DHT22;45751;51.380;10.326;2022-08-21T07:32:39;16.40;99.90
59881;DHT22;45751;51.380;10.326;2022-08-21T07:35:06;16.40;99.90
59881;DHT22;45751;51.380;10.326;2022-08-21T07:37:33;16.40;99.90
59881;DHT22;45751;51.380;10.326;2022-08-21T07:40:00;16.40;99.90
59881;DHT22;45751;51.380;10.326;2022-08-21T07:42:27;16.60;99.90
59881;DHT22;45751;51.380;10.326;2022-08-21T07:44:55;16.60;99.90
59881;DHT22;45751;51.380;10.326;2022-08-21T07:47:22;16.60;99.90
59881;DHT22;45751;51.380;10.326;2022-08-21T07:50:08;16.60;99.90
59881;DHT22;45751;51.380;10.326;2022-08-21T07:52:35;16.60;99.90
59881;DHT22;45751;51.380;10.326;2022-08-21T07:55:02;16.70;99.90
59881;DHT22;45751;51.380;10.326;2022-08-21T07:57:32;16.70;99.90
59881;DHT22;45751;51.380;10.326;2022-08-21T07:59:59;16.80;99.90
59881;DHT22;45751;51.380;10.326;2022-08-21T08:02:28;16.80;99.90
59881;DHT22;45751;51.380;10.326;2022-08-21T08:05:03;16.90;99.90
59881;DHT22;45751;51.380;10.326;2022-08-21T08:07:31;16.90;99.90
59881;DHT22;45751;51.380;10.326;2022-08-21T08:09:58;16.90;99.90
59881;DHT22;45751;51.380;10.326;2022-08-21T08:12:25;17.00;99.90
59881;DHT22;45751;51.380;10.326;2022-08-21T08:15:00;17.00;99.90
59881;DHT22;45751;51.380;10.326;2022-08-21T08:17:27;17.10;99.90
59881;DHT22;45751;51.380;10.326;2022-08-21T08:19:53;17.10;99.90
59881;DHT22;45751;51.380;10.326;2022-08-21T08:22:22;17.20;99.90
59881;DHT22;45751;51.380;10.326;2022-08-21T08:24:51;17.20;99.90
59881;DHT22;45751;51.380;10.326;2022-08-21T08:27:18;17.20;99.90
59881;DHT22;45751;51.380;10.326;2022-08-21T08:29:46;17.30;99.90
59881;DHT22;45751;51.380;10.326;2022-08-21T08:32:14;17.30;99.90
59881;DHT22;45751;51.380;10.326;2022-08-21T08:34:41;17.40;99.90
59881;DHT22;45751;51.380;10.326;2022-08-21T08:37:09;17.50;99.90
59881;DHT22;45751;51.380;10.326;2022-08-21T08:39:36;17.50;99.90
59881;DHT22;45751;51.380;10.326;2022-08-21T08:42:09;17.50;99.90
59881;DHT22;45751;51.380;10.326;2022-08-21T08:45:06;17.60;99.90
59881;DHT22;45751;51.380;10.326;2022-08-21T08:47:37;17.60;99.90
59881;DHT22;45751;51.380;10.326;2022-08-21T08:50:17;17.70;99.90
59881;DHT22;45751;51.380;10.326;2022-08-21T08:52:48;17.80;99.10
59881;DHT22;45751;51.380;10.326;2022-08-21T08:55:26;17.80;98.30
59881;DHT22;45751;51.380;10.326;2022-08-21T08:57:55;17.90;98.60
59881;DHT22;45751;51.380;10.326;2022-08-21T09:00:22;17.90;96.90
59881;DHT22;45751;51.380;10.326;2022-08-21T09:02:53;18.00;95.50
59881;DHT22;45751;51.380;10.326;2022-08-21T09:05:43;18.10;94.40
59881;DHT22;45751;51.380;10.326;2022-08-21T09:24:33;18.50;91.50
59881;DHT22;45751;51.380;10.326;2022-08-21T09:27:11;18.50;91.50
59881;DHT22;45751;51.380;10.326;2022-08-21T09:29:42;18.60;91.60
59881;DHT22;45751;51.380;10.326;2022-08-21T09:32:15;18.70;91.00
59881;DHT22;45751;51.380;10.326;2022-08-21T09:35:23;18.70;90.10
59881;DHT22;45751;51.380;10.326;2022-08-21T09:37:54;18.80;88.30
59881;DHT22;45751;51.380;10.326;2022-08-21T09:43:14;18.80;80.10
59881;DHT22;45751;51.380;10.326;2022-08-21T09:45:44;19.00;79.50
59881;DHT22;45751;51.380;10.326;2022-08-21T09:48:13;19.00;81.10
59881;DHT22;45751;51.380;10.326;2022-08-21T09:50:42;19.10;75.50
59881;DHT22;45751;51.380;10.326;2022-08-21T09:53:37;19.20;75.60
59881;DHT22;45751;51.380;10.326;2022-08-21T09:56:31;19.30;79.10
59881;DHT22;45751;51.380;10.326;2022-08-21T09:59:29;19.50;77.50
59881;DHT22;45751;51.380;10.326;2022-08-21T10:02:26;19.50;73.70
59881;DHT22;45751;51.380;10.326;2022-08-21T10:04:59;19.60;73.90
59881;DHT22;45751;51.380;10.326;2022-08-21T10:07:30;19.70;75.10
59881;DHT22;45751;51.380;10.326;2022-08-21T10:10:07;19.70;76.30
59881;DHT22;45751;51.380;10.326;2022-08-21T10:18:16;19.70;76.60
59881;DHT22;45751;51.380;10.326;2022-08-21T10:24:07;19.60;78.30
59881;DHT22;45751;51.380;10.326;2022-08-21T10:26:56;19.60;77.80
59881;DHT22;45751;51.380;10.326;2022-08-21T10:35:06;19.60;73.40
59881;DHT22;45751;51.380;10.326;2022-08-21T10:37:38;19.60;73.50
59881;DHT22;45751;51.380;10.326;2022-08-21T10:48:03;19.80;70.50
59881;DHT22;45751;51.380;10.326;2022-08-21T10:55:54;20.00;72.60
59881;DHT22;45751;51.380;10.326;2022-08-21T10:58:29;20.00;72.00
59881;DHT22;45751;51.380;10.326;2022-08-21T11:01:04;20.00;71.80
59881;DHT22;45751;51.380;10.326;2022-08-21T11:03:42;20.10;71.00
59881;DHT22;45751;51.380;10.326;2022-08-21T11:06:14;20.10;69.90
59881;DHT22;45751;51.380;10.326;2022-08-21T11:08:48;20.20;69.90
59881;DHT22;45751;51.380;10.326;2022-08-21T11:11:25;20.20;71.10
59881;DHT22;45751;51.380;10.326;2022-08-21T11:17:00;20.30;70.20
59881;DHT22;45751;51.380;10.326;2022-08-21T11:19:35;20.30;69.00
59881;DHT22;45751;51.380;10.326;2022-08-21T11:24:58;20.30;66.60
59881;DHT22;45751;51.380;10.326;2022-08-21T11:27:33;20.40;67.60
59881;DHT22;45751;51.380;10.326;2022-08-21T11:30:03;20.50;66.40
59881;DHT22;45751;51.380;10.326;2022-08-21T11:43:45;20.60;62.20
59881;DHT22;45751;51.380;10.326;2022-08-21T11:46:44;20.70;61.40
59881;DHT22;45751;51.380;10.326;2022-08-21T11:52:39;20.80;61.10
59881;DHT22;45751;51.380;10.326;2022-08-21T11:56:02;20.90;61.20
59881;DHT22;45751;51.380;10.326;2022-08-21T12:01:29;21.10;60.20
59881;DHT22;45751;51.380;10.326;2022-08-21T12:04:08;21.20;60.30
59881;DHT22;45751;51.380;10.326;2022-08-21T12:06:40;21.30;60.40
59881;DHT22;45751;51.380;10.326;2022-08-21T12:09:33;21.40;59.50
59881;DHT22;45751;51.380;10.326;2022-08-21T12:12:28;21.40;58.10
59881;DHT22;45751;51.380;10.326;2022-08-21T12:18:00;21.50;57.20
59881;DHT22;45751;51.380;10.326;2022-08-21T12:20:43;21.70;56.20
59881;DHT22;45751;51.380;10.326;2022-08-21T12:23:26;21.80;54.70
59881;DHT22;45751;51.380;10.326;2022-08-21T12:28:48;22.00;53.80
59881;DHT22;45751;51.380;10.326;2022-08-21T12:31:20;22.00;53.10
59881;DHT22;45751;51.380;10.326;2022-08-21T12:33:56;22.10;53.00
59881;DHT22;45751;51.380;10.326;2022-08-21T12:36:37;22.20;53.10
59881;DHT22;45751;51.380;10.326;2022-08-21T12:39:12;22.30;53.10
59881;DHT22;45751;51.380;10.326;2022-08-21T12:41:49;22.50;53.50
59881;DHT22;45751;51.380;10.326;2022-08-21T12:44:35;22.60;52.00
59881;DHT22;45751;51.380;10.326;2022-08-21T12:47:13;22.70;51.30
59881;DHT22;45751;51.380;10.326;2022-08-21T12:49:52;22.70;50.60
59881;DHT22;45751;51.380;10.326;2022-08-21T12:54:54;22.80;49.50
59881;DHT22;45751;51.380;10.326;2022-08-21T12:57:27;22.90;49.10
59881;DHT22;45751;51.380;10.326;2022-08-21T13:00:01;23.00;48.20
59881;DHT22;45751;51.380;10.326;2022-08-21T13:02:36;23.10;48.60
59881;DHT22;45751;51.380;10.326;2022-08-21T13:05:08;23.20;48.30
59881;DHT22;45751;51.380;10.326;2022-08-21T13:07:44;23.30;47.40
59881;DHT22;45751;51.380;10.326;2022-08-21T13:10:18;23.50;47.80
59881;DHT22;45751;51.380;10.326;2022-08-21T13:12:46;23.60;46.80
59881;DHT22;45751;51.380;10.326;2022-08-21T13:15:14;23.70;47.50
59881;DHT22;45751;51.380;10.326;2022-08-21T13:17:46;23.80;45.80
59881;DHT22;45751;51.380;10.326;2022-08-21T13:20:24;23.80;45.50
59881;DHT22;45751;51.380;10.326;2022-08-21T13:22:51;23.90;45.70
59881;DHT22;45751;51.380;10.326;2022-08-21T13:25:20;24.00;45.70
59881;DHT22;45751;51.380;10.326;2022-08-21T13:28:09;24.10;46.20
59881;DHT22;45751;51.380;10.326;2022-08-21T13:30:58;24.20;46.70
59881;DHT22;45751;51.380;10.326;2022-08-21T13:33:26;24.40;45.10
59881;DHT22;45751;51.380;10.326;2022-08-21T13:36:04;24.50;44.20
59881;DHT22;45751;51.380;10.326;2022-08-21T13:38:34;24.60;44.80
59881;DHT22;45751;51.380;10.326;2022-08-21T13:43:56;24.90;43.80
59881;DHT22;45751;51.380;10.326;2022-08-21T13:46:24;25.10;42.30
59881;DHT22;45751;51.380;10.326;2022-08-21T13:48:54;25.20;41.40
59881;DHT22;45751;51.380;10.326;2022-08-21T13:51:22;25.20;40.40
59881;DHT22;45751;51.380;10.326;2022-08-21T13:53:50;25.20;39.80
59881;DHT22;45751;51.380;10.326;2022-08-21T13:56:40;25.30;40.00
59881;DHT22;45751;51.380;10.326;2022-08-21T13:59:07;25.40;39.80
59881;DHT22;45751;51.380;10.326;2022-08-21T14:01:48;25.60;39.70
59881;DHT22;45751;51.380;10.326;2022-08-21T14:04:22;25.80;39.30
59881;DHT22;45751;51.380;10.326;2022-08-21T14:06:51;26.00;39.90
59881;DHT22;45751;51.380;10.326;2022-08-21T14:09:34;26.20;40.00
59881;DHT22;45751;51.380;10.326;2022-08-21T14:12:16;26.40;37.20
59881;DHT22;45751;51.380;10.326;2022-08-21T14:14:50;26.50;36.50
59881;DHT22;45751;51.380;10.326;2022-08-21T14:17:35;26.60;36.60
59881;DHT22;45751;51.380;10.326;2022-08-21T14:20:06;26.60;36.80
59881;DHT22;45751;51.380;10.326;2022-08-21T14:25:40;26.80;36.60
59881;DHT22;45751;51.380;10.326;2022-08-21T14:28:24;26.80;35.50
59881;DHT22;45751;51.380;10.326;2022-08-21T14:30:55;26.90;34.80
59881;DHT22;45751;51.380;10.326;2022-08-21T14:33:28;26.80;34.70
59881;DHT22;45751;51.380;10.326;2022-08-21T14:35:55;26.90;35.00
59881;DHT22;45751;51.380;10.326;2022-08-21T14:38:25;27.00;34.50
59881;DHT22;45751;51.380;10.326;2022-08-21T14:40:55;27.10;33.90
59881;DHT22;45751;51.380;10.326;2022-08-21T14:43:25;27.10;34.10
59881;DHT22;45751;51.380;10.326;2022-08-21T14:45:52;27.20;33.80
59881;DHT22;45751;51.380;10.326;2022-08-21T14:48:19;27.30;33.70
59881;DHT22;45751;51.380;10.326;2022-08-21T14:50:46;27.50;33.50
59881;DHT22;45751;51.380;10.326;2022-08-21T14:53:15;27.60;32.70
59881;DHT22;45751;51.380;10.326;2022-08-21T14:55:42;27.60;32.40
59881;DHT22;45751;51.380;10.326;2022-08-21T14:58:28;27.60;31.90
59881;DHT22;45751;51.380;10.326;2022-08-21T15:00:55;27.60;31.70
59881;DHT22;45751;51.380;10.326;2022-08-21T15:03:25;27.70;31.70
59881;DHT22;45751;51.380;10.326;2022-08-21T15:05:52;27.60;31.20
59881;DHT22;45751;51.380;10.326;2022-08-21T15:08:19;27.50;31.10
59881;DHT22;45751;51.380;10.326;2022-08-21T15:10:46;27.50;31.40
59881;DHT22;45751;51.380;10.326;2022-08-21T15:13:33;27.70;32.50
59881;DHT22;45751;51.380;10.326;2022-08-21T15:16:00;27.80;32.20
59881;DHT22;45751;51.380;10.326;2022-08-21T15:18:30;27.90;31.30
59881;DHT22;45751;51.380;10.326;2022-08-21T15:20:57;27.90;30.80
59881;DHT22;45751;51.380;10.326;2022-08-21T15:23:24;27.90;31.20
59881;DHT22;45751;51.380;10.326;2022-08-21T15:25:52;27.90;31.20
59881;DHT22;45751;51.380;10.326;2022-08-21T15:28:19;28.00;30.70
59881;DHT22;45751;51.380;10.326;2022-08-21T15:30:48;28.00;30.20
59881;DHT22;45751;51.380;10.326;2022-08-21T15:33:15;28.00;30.00
59881;DHT22;45751;51.380;10.326;2022-08-21T15:35:42;27.90;30.20
59881;DHT22;45751;51.380;10.326;2022-08-21T15:38:09;27.90;32.20
59881;DHT22;45751;51.380;10.326;2022-08-21T15:40:38;28.00;30.30
59881;DHT22;45751;51.380;10.326;2022-08-21T15:43:25;27.90;30.60
59881;DHT22;45751;51.380;10.326;2022-08-21T15:45:58;28.00;30.10
59881;DHT22;45751;51.380;10.326;2022-08-21T15:48:26;28.10;30.00
59881;DHT22;45751;51.380;10.326;2022-08-21T15:50:53;28.10;30.00
59881;DHT22;45751;51.380;10.326;2022-08-21T15:53:20;28.10;31.10
59881;DHT22;45751;51.380;10.326;2022-08-21T15:55:46;28.10;30.90
59881;DHT22;45751;51.380;10.326;2022-08-21T15:58:14;28.20;31.00
59881;DHT22;45751;51.380;10.326;2022-08-21T16:00:43;28.30;31.30
59881;DHT22;45751;51.380;10.326;2022-08-21T16:03:14;28.30;31.20
59881;DHT22;45751;51.380;10.326;2022-08-21T16:05:46;28.30;30.70
59881;DHT22;45751;51.380;10.326;2022-08-21T16:08:15;28.40;30.30
59881;DHT22;45751;51.380;10.326;2022-08-21T16:10:42;28.40;30.50
59881;DHT22;45751;51.380;10.326;2022-08-21T16:13:35;28.40;30.10
59881;DHT22;45751;51.380;10.326;2022-08-21T16:16:02;28.40;30.20
59881;DHT22;45751;51.380;10.326;2022-08-21T16:18:29;28.40;30.40
59881;DHT22;45751;51.380;10.326;2022-08-21T16:20:57;28.40;30.50
59881;DHT22;45751;51.380;10.326;2022-08-21T16:23:24;28.40;30.00
59881;DHT22;45751;51.380;10.326;2022-08-21T16:25:51;28.40;29.70
59881;DHT22;45751;51.380;10.326;2022-08-21T16:28:19;28.40;29.80
59881;DHT22;45751;51.380;10.326;2022-08-21T16:30:48;28.30;30.00
59881;DHT22;45751;51.380;10.326;2022-08-21T16:33:29;28.20;29.80
59881;DHT22;45751;51.380;10.326;2022-08-21T16:35:58;28.20;30.00
59881;DHT22;45751;51.380;10.326;2022-08-21T16:38:29;28.20;30.00
59881;DHT22;45751;51.380;10.326;2022-08-21T16:40:58;28.00;30.00
59881;DHT22;45751;51.380;10.326;2022-08-21T16:43:28;27.90;30.00
59881;DHT22;45751;51.380;10.326;2022-08-21T16:45:57;27.80;30.00
59881;DHT22;45751;51.380;10.326;2022-08-21T16:48:24;27.80;30.30
59881;DHT22;45751;51.380;10.326;2022-08-21T16:50:51;27.70;30.70
59881;DHT22;45751;51.380;10.326;2022-08-21T16:53:18;27.60;30.30
59881;DHT22;45751;51.380;10.326;2022-08-21T16:55:45;27.50;30.50
59881;DHT22;45751;51.380;10.326;2022-08-21T16:58:33;27.50;30.90
59881;DHT22;45751;51.380;10.326;2022-08-21T17:01:05;27.30;31.00
59881;DHT22;45751;51.380;10.326;2022-08-21T17:03:41;27.40;31.10
59881;DHT22;45751;51.380;10.326;2022-08-21T17:06:09;27.40;31.00